TimeCDT,TemperatureF,Dew PointF,Humidity,Sea Level PressureIn,VisibilityMPH,Wind Direction,Wind SpeedMPH,Gust SpeedMPH,PrecipitationIn,Events,Conditions,WindDirDegrees,DateUTC
12:15 AM,42.8,37.4,81,30.12,10.0,Calm,Calm,-,N/A,,Clear,0,2013-04-06 05:15:00
12:35 AM,39.2,35.6,87,30.12,10.0,Calm,Calm,-,N/A,,Clear,0,2013-04-06 05:35:00
12:55 AM,41.0,37.4,87,30.12,10.0,Calm,Calm,-,N/A,,Clear,0,2013-04-06 05:55:00
1:15 AM,41.0,35.6,81,30.12,10.0,Calm,Calm,-,N/A,,Clear,0,2013-04-06 06:15:00
1:35 AM,41.0,35.6,81,30.11,10.0,Calm,Calm,-,N/A,,Clear,0,2013-04-06 06:35:00
1:55 AM,39.2,35.6,87,30.12,10.0,Calm,Calm,-,N/A,,Clear,0,2013-04-06 06:55:00
2:15 AM,37.4,33.8,87,30.11,10.0,Calm,Calm,-,N/A,,Clear,0,2013-04-06 07:15:00
2:35 AM,37.4,35.6,93,30.11,10.0,Calm,Calm,-,N/A,,Clear,0,2013-04-06 07:35:00
2:55 AM,39.2,35.6,87,30.11,10.0,Calm,Calm,-,N/A,,Clear,0,2013-04-06 07:55:00
3:15 AM,37.4,35.6,93,30.11,10.0,Calm,Calm,-,N/A,,Clear,0,2013-04-06 08:15:00
3:35 AM,37.4,33.8,87,30.11,10.0,Calm,Calm,-,N/A,,Clear,0,2013-04-06 08:35:00
3:55 AM,37.4,33.8,87,30.12,10.0,Calm,Calm,-,N/A,,Clear,0,2013-04-06 08:55:00
4:15 AM,37.4,33.8,87,30.11,10.0,Calm,Calm,-,N/A,,Clear,0,2013-04-06 09:15:00
4:35 AM,37.4,33.8,87,30.11,10.0,Calm,Calm,-,N/A,,Clear,0,2013-04-06 09:35:00
4:55 AM,35.6,33.8,93,30.11,10.0,Calm,Calm,-,N/A,,Clear,0,2013-04-06 09:55:00
5:15 AM,35.6,33.8,93,30.12,10.0,Calm,Calm,-,N/A,,Clear,0,2013-04-06 10:15:00
5:35 AM,37.4,33.8,87,30.12,10.0,Calm,Calm,-,N/A,,Clear,0,2013-04-06 10:35:00
5:55 AM,37.4,33.8,87,30.13,10.0,Calm,Calm,-,N/A,,Clear,0,2013-04-06 10:55:00
6:15 AM,37.4,33.8,87,30.13,10.0,Calm,Calm,-,N/A,,Clear,0,2013-04-06 11:15:00
6:35 AM,37.4,35.6,93,30.14,10.0,Calm,Calm,-,N/A,,Clear,0,2013-04-06 11:35:00
6:55 AM,37.4,35.6,93,30.15,10.0,Calm,Calm,-,N/A,,Clear,0,2013-04-06 11:55:00
7:15 AM,39.2,35.6,87,30.15,10.0,Calm,Calm,-,N/A,,Clear,0,2013-04-06 12:15:00
7:35 AM,42.8,39.2,87,30.16,10.0,Calm,Calm,-,N/A,,Clear,0,2013-04-06 12:35:00
7:55 AM,44.6,39.2,81,30.16,10.0,Calm,Calm,-,N/A,,Clear,0,2013-04-06 12:55:00
8:15 AM,48.2,37.4,66,30.16,10.0,Calm,Calm,-,N/A,,Clear,0,2013-04-06 13:15:00
8:35 AM,51.8,39.2,62,30.16,10.0,SE,3.5,-,N/A,,Clear,140,2013-04-06 13:35:00
8:55 AM,55.4,37.4,51,30.16,10.0,Calm,Calm,-,N/A,,Clear,0,2013-04-06 13:55:00
9:15 AM,57.2,37.4,48,30.16,10.0,Calm,Calm,-,N/A,,Clear,0,2013-04-06 14:15:00
9:35 AM,60.8,37.4,42,30.17,10.0,SSW,4.6,-,N/A,,Clear,210,2013-04-06 14:35:00
9:55 AM,62.6,37.4,39,30.16,10.0,SSE,8.1,-,N/A,,Clear,160,2013-04-06 14:55:00
10:15 AM,62.6,33.8,34,30.17,10.0,SE,9.2,-,N/A,,Clear,130,2013-04-06 15:15:00
10:35 AM,64.4,33.8,32,30.16,10.0,SSE,11.5,-,N/A,,Clear,150,2013-04-06 15:35:00
10:55 AM,64.4,35.6,34,30.16,10.0,South,9.2,-,N/A,,Clear,180,2013-04-06 15:55:00
11:15 AM,66.2,35.6,32,30.16,10.0,South,9.2,-,N/A,,Clear,190,2013-04-06 16:15:00
11:35 AM,66.2,35.6,32,30.16,10.0,SSE,11.5,-,N/A,,Clear,160,2013-04-06 16:35:00
11:55 AM,66.2,33.8,30,30.15,10.0,South,9.2,-,N/A,,Clear,170,2013-04-06 16:55:00
12:15 PM,66.2,33.8,30,30.15,10.0,SSE,9.2,-,N/A,,Clear,160,2013-04-06 17:15:00
12:35 PM,68.0,33.8,28,30.14,10.0,SSE,10.4,-,N/A,,Clear,150,2013-04-06 17:35:00
12:55 PM,68.0,33.8,28,30.13,10.0,South,11.5,-,N/A,,Clear,190,2013-04-06 17:55:00
1:15 PM,68.0,33.8,28,30.12,10.0,South,9.2,-,N/A,,Clear,180,2013-04-06 18:15:00
1:35 PM,69.8,35.6,28,30.11,10.0,SSW,11.5,-,N/A,,Clear,200,2013-04-06 18:35:00
1:55 PM,69.8,33.8,27,30.10,10.0,Variable,5.8,-,N/A,,Clear,0,2013-04-06 18:55:00
2:15 PM,69.8,33.8,27,30.10,10.0,South,12.7,-,N/A,,Clear,170,2013-04-06 19:15:00
2:35 PM,68.0,35.6,30,30.09,10.0,South,6.9,-,N/A,,Clear,190,2013-04-06 19:35:00
2:55 PM,69.8,33.8,27,30.08,10.0,South,10.4,-,N/A,,Clear,180,2013-04-06 19:55:00
3:15 PM,71.6,35.6,27,30.07,10.0,Variable,6.9,-,N/A,,Clear,0,2013-04-06 20:15:00
3:35 PM,69.8,35.6,28,30.06,10.0,SSE,8.1,-,N/A,,Clear,150,2013-04-06 20:35:00
3:55 PM,71.6,37.4,29,30.06,10.0,SSW,9.2,-,N/A,,Clear,200,2013-04-06 20:55:00
4:15 PM,71.6,37.4,29,30.05,10.0,South,9.2,-,N/A,,Clear,180,2013-04-06 21:15:00
4:35 PM,71.6,37.4,29,30.05,10.0,SSW,12.7,-,N/A,,Clear,210,2013-04-06 21:35:00
4:55 PM,69.8,37.4,31,30.04,10.0,SW,15.0,-,N/A,,Clear,220,2013-04-06 21:55:00
5:15 PM,69.8,35.6,28,30.05,10.0,South,6.9,-,N/A,,Clear,180,2013-04-06 22:15:00
5:35 PM,69.8,35.6,28,30.04,10.0,South,10.4,-,N/A,,Clear,190,2013-04-06 22:35:00
5:55 PM,69.8,35.6,28,30.04,10.0,SSW,10.4,-,N/A,,Clear,200,2013-04-06 22:55:00
6:15 PM,68.0,37.4,33,30.04,10.0,South,8.1,-,N/A,,Clear,190,2013-04-06 23:15:00
6:35 PM,66.2,35.6,32,30.04,10.0,South,6.9,-,N/A,,Clear,180,2013-04-06 23:35:00
6:55 PM,64.4,35.6,34,30.04,10.0,South,8.1,-,N/A,,Clear,170,2013-04-06 23:55:00
7:15 PM,64.4,35.6,34,30.03,10.0,South,6.9,-,N/A,,Clear,180,2013-04-07 00:15:00
7:35 PM,64.4,35.6,34,30.03,10.0,South,5.8,-,N/A,,Clear,170,2013-04-07 00:35:00
7:55 PM,64.4,35.6,34,30.04,10.0,SSE,6.9,-,N/A,,Clear,160,2013-04-07 00:55:00
8:15 PM,62.6,37.4,39,30.04,10.0,South,5.8,-,N/A,,Clear,170,2013-04-07 01:15:00
8:35 PM,62.6,35.6,37,30.04,10.0,SSE,6.9,-,N/A,,Clear,160,2013-04-07 01:35:00
8:55 PM,60.8,37.4,42,30.05,10.0,South,5.8,-,N/A,,Clear,170,2013-04-07 01:55:00
9:15 PM,60.8,37.4,42,30.05,10.0,SSE,6.9,-,N/A,,Clear,160,2013-04-07 02:15:00
9:35 PM,60.8,37.4,42,30.05,10.0,SSE,6.9,-,N/A,,Clear,160,2013-04-07 02:35:00
9:55 PM,60.8,37.4,42,30.06,10.0,SSE,5.8,-,N/A,,Clear,160,2013-04-07 02:55:00
10:15 PM,60.8,37.4,42,30.06,10.0,SSE,5.8,-,N/A,,Clear,160,2013-04-07 03:15:00
10:35 PM,59.0,37.4,45,30.07,10.0,South,4.6,-,N/A,,Clear,170,2013-04-07 03:35:00
10:55 PM,59.0,37.4,45,30.07,10.0,South,5.8,-,N/A,,Clear,170,2013-04-07 03:55:00
11:15 PM,57.2,37.4,48,30.07,10.0,South,4.6,-,N/A,,Clear,180,2013-04-07 04:15:00
11:35 PM,57.2,37.4,48,30.07,10.0,South,4.6,-,N/A,,Clear,180,2013-04-07 04:35:00
11:55 PM,57.2,37.4,48,30.08,10.0,South,5.8,-,N/A,,Clear,180,2013-04-07 04:55:00